sensor_id;sensor_type;location;lat;lon;timestamp;temperature;humidity
10245;DHT22;5167;52.164;10.530;2022-07-06T00:01:45;20.30;5.00
10245;DHT22;5167;52.164;10.530;2022-07-06T00:04:10;20.30;5.00
10245;DHT22;5167;52.164;10.530;2022-07-06T00:06:36;20.20;5.00
10245;DHT22;5167;52.164;10.530;2022-07-06T00:09:02;20.20;5.00
10245;DHT22;5167;52.164;10.530;2022-07-06T00:11:28;20.10;5.00
10245;DHT22;5167;52.164;10.530;2022-07-06T00:13:54;20.10;5.00
10245;DHT22;5167;52.164;10.530;2022-07-06T00:16:22;20.10;5.00
10245;DHT22;5167;52.164;10.530;2022-07-06T00:18:48;20.00;5.00
10245;DHT22;5167;52.164;10.530;2022-07-06T00:21:14;20.00;5.00
10245;DHT22;5167;52.164;10.530;2022-07-06T00:23:39;19.90;5.00
10245;DHT22;5167;52.164;10.530;2022-07-06T00:26:05;19.90;5.00
10245;DHT22;5167;52.164;10.530;2022-07-06T00:28:31;20.00;5.00
10245;DHT22;5167;52.164;10.530;2022-07-06T00:30:56;19.90;5.00
10245;DHT22;5167;52.164;10.530;2022-07-06T00:33:22;19.80;5.00
10245;DHT22;5167;52.164;10.530;2022-07-06T00:35:48;19.90;5.00
10245;DHT22;5167;52.164;10.530;2022-07-06T00:38:14;19.80;5.00
10245;DHT22;5167;52.164;10.530;2022-07-06T00:40:39;19.80;5.00
10245;DHT22;5167;52.164;10.530;2022-07-06T00:43:05;19.70;5.00
10245;DHT22;5167;52.164;10.530;2022-07-06T00:45:30;19.70;5.00
10245;DHT22;5167;52.164;10.530;2022-07-06T00:47:56;19.70;5.00
10245;DHT22;5167;52.164;10.530;2022-07-06T00:50:22;19.60;5.00
10245;DHT22;5167;52.164;10.530;2022-07-06T00:53:02;19.60;5.00
10245;DHT22;5167;52.164;10.530;2022-07-06T00:55:30;19.60;5.00
10245;DHT22;5167;52.164;10.530;2022-07-06T00:57:57;19.50;5.00
10245;DHT22;5167;52.164;10.530;2022-07-06T01:00:25;19.50;5.00
10245;DHT22;5167;52.164;10.530;2022-07-06T01:02:51;19.40;5.00
10245;DHT22;5167;52.164;10.530;2022-07-06T01:05:18;19.40;5.00
10245;DHT22;5167;52.164;10.530;2022-07-06T01:07:46;19.40;5.00
10245;DHT22;5167;52.164;10.530;2022-07-06T01:10:13;19.30;5.00
10245;DHT22;5167;52.164;10.530;2022-07-06T01:12:40;19.30;5.00
10245;DHT22;5167;52.164;10.530;2022-07-06T01:15:08;19.30;5.00
10245;DHT22;5167;52.164;10.530;2022-07-06T01:17:34;19.30;5.00
10245;DHT22;5167;52.164;10.530;2022-07-06T01:22:38;19.20;5.00
10245;DHT22;5167;52.164;10.530;2022-07-06T01:25:06;19.30;5.00
10245;DHT22;5167;52.164;10.530;2022-07-06T01:27:34;19.20;5.00
10245;DHT22;5167;52.164;10.530;2022-07-06T01:30:00;19.20;5.00
10245;DHT22;5167;52.164;10.530;2022-07-06T01:32:25;19.20;5.00
10245;DHT22;5167;52.164;10.530;2022-07-06T01:34:51;19.10;5.00
10245;DHT22;5167;52.164;10.530;2022-07-06T01:37:16;19.10;5.00
10245;DHT22;5167;52.164;10.530;2022-07-06T01:39:41;19.10;5.00
10245;DHT22;5167;52.164;10.530;2022-07-06T01:42:07;19.10;5.00
10245;DHT22;5167;52.164;10.530;2022-07-06T01:44:33;19.00;5.00
10245;DHT22;5167;52.164;10.530;2022-07-06T01:46:58;19.00;5.00
10245;DHT22;5167;52.164;10.530;2022-07-06T01:49:23;19.00;5.00
10245;DHT22;5167;52.164;10.530;2022-07-06T01:51:49;19.00;5.00
10245;DHT22;5167;52.164;10.530;2022-07-06T01:54:14;18.90;5.00
10245;DHT22;5167;52.164;10.530;2022-07-06T01:56:40;18.90;5.00
10245;DHT22;5167;52.164;10.530;2022-07-06T01:59:05;19.00;5.00
10245;DHT22;5167;52.164;10.530;2022-07-06T02:01:31;19.00;5.00
10245;DHT22;5167;52.164;10.530;2022-07-06T02:03:56;18.90;5.00
10245;DHT22;5167;52.164;10.530;2022-07-06T02:06:22;19.00;5.00
10245;DHT22;5167;52.164;10.530;2022-07-06T02:08:47;19.00;5.00
10245;DHT22;5167;52.164;10.530;2022-07-06T02:11:13;19.00;5.00
10245;DHT22;5167;52.164;10.530;2022-07-06T02:13:39;19.00;5.00
10245;DHT22;5167;52.164;10.530;2022-07-06T02:16:04;19.00;5.00
10245;DHT22;5167;52.164;10.530;2022-07-06T02:18:30;18.90;5.00
10245;DHT22;5167;52.164;10.530;2022-07-06T02:20:56;18.90;5.00
10245;DHT22;5167;52.164;10.530;2022-07-06T02:23:21;19.00;5.00
10245;DHT22;5167;52.164;10.530;2022-07-06T02:25:47;19.00;5.00
10245;DHT22;5167;52.164;10.530;2022-07-06T02:28:13;19.00;5.00
10245;DHT22;5167;52.164;10.530;2022-07-06T02:30:38;18.90;5.00
10245;DHT22;5167;52.164;10.530;2022-07-06T02:33:04;19.00;5.00
10245;DHT22;5167;52.164;10.530;2022-07-06T02:35:29;19.00;5.00
10245;DHT22;5167;52.164;10.530;2022-07-06T02:37:55;19.00;5.00
10245;DHT22;5167;52.164;10.530;2022-07-06T02:40:20;19.00;5.00
10245;DHT22;5167;52.164;10.530;2022-07-06T02:42:46;19.00;5.00
10245;DHT22;5167;52.164;10.530;2022-07-06T02:45:11;19.00;5.00
10245;DHT22;5167;52.164;10.530;2022-07-06T02:47:37;18.90;5.00
10245;DHT22;5167;52.164;10.530;2022-07-06T02:50:04;19.00;5.00
10245;DHT22;5167;52.164;10.530;2022-07-06T02:52:29;18.90;5.00
10245;DHT22;5167;52.164;10.530;2022-07-06T02:54:55;18.90;5.00
10245;DHT22;5167;52.164;10.530;2022-07-06T02:57:20;19.00;5.00
10245;DHT22;5167;52.164;10.530;2022-07-06T02:59:46;19.00;5.00
10245;DHT22;5167;52.164;10.530;2022-07-06T03:02:12;19.00;5.00
10245;DHT22;5167;52.164;10.530;2022-07-06T03:04:37;18.90;5.00
10245;DHT22;5167;52.164;10.530;2022-07-06T03:07:03;19.00;5.00
10245;DHT22;5167;52.164;10.530;2022-07-06T03:09:29;18.90;5.00
10245;DHT22;5167;52.164;10.530;2022-07-06T03:11:54;19.00;5.00
10245;DHT22;5167;52.164;10.530;2022-07-06T03:14:20;19.00;5.00
10245;DHT22;5167;52.164;10.530;2022-07-06T03:16:46;19.00;5.00
10245;DHT22;5167;52.164;10.530;2022-07-06T03:19:11;19.00;5.00
10245;DHT22;5167;52.164;10.530;2022-07-06T03:21:37;18.90;5.00
10245;DHT22;5167;52.164;10.530;2022-07-06T03:24:02;19.00;5.00
10245;DHT22;5167;52.164;10.530;2022-07-06T03:26:28;18.90;5.00
10245;DHT22;5167;52.164;10.530;2022-07-06T03:28:53;19.00;5.00
10245;DHT22;5167;52.164;10.530;2022-07-06T03:31:19;18.90;5.00
10245;DHT22;5167;52.164;10.530;2022-07-06T03:33:44;18.90;5.00
10245;DHT22;5167;52.164;10.530;2022-07-06T03:36:10;19.00;5.00
10245;DHT22;5167;52.164;10.530;2022-07-06T03:38:36;18.90;5.00
10245;DHT22;5167;52.164;10.530;2022-07-06T03:41:02;18.80;5.00
10245;DHT22;5167;52.164;10.530;2022-07-06T03:43:28;18.80;5.00
10245;DHT22;5167;52.164;10.530;2022-07-06T03:45:53;18.90;5.00
10245;DHT22;5167;52.164;10.530;2022-07-06T03:48:19;18.80;5.00
10245;DHT22;5167;52.164;10.530;2022-07-06T03:50:44;18.80;5.00
10245;DHT22;5167;52.164;10.530;2022-07-06T03:53:10;18.80;5.00
10245;DHT22;5167;52.164;10.530;2022-07-06T03:55:35;18.90;5.00
10245;DHT22;5167;52.164;10.530;2022-07-06T03:58:01;18.80;5.00
10245;DHT22;5167;52.164;10.530;2022-07-06T04:00:27;18.80;5.00
10245;DHT22;5167;52.164;10.530;2022-07-06T04:02:52;18.80;5.00
10245;DHT22;5167;52.164;10.530;2022-07-06T04:05:18;18.80;5.00
10245;DHT22;5167;52.164;10.530;2022-07-06T04:07:50;18.80;5.00
10245;DHT22;5167;52.164;10.530;2022-07-06T04:10:16;18.80;5.00
10245;DHT22;5167;52.164;10.530;2022-07-06T04:12:42;18.80;5.00
10245;DHT22;5167;52.164;10.530;2022-07-06T04:15:09;18.80;5.00
10245;DHT22;5167;52.164;10.530;2022-07-06T04:17:34;18.80;5.00
10245;DHT22;5167;52.164;10.530;2022-07-06T04:20:19;18.80;5.00
10245;DHT22;5167;52.164;10.530;2022-07-06T04:22:44;18.80;5.00
10245;DHT22;5167;52.164;10.530;2022-07-06T04:25:10;18.70;5.00
10245;DHT22;5167;52.164;10.530;2022-07-06T04:27:36;18.80;5.00
10245;DHT22;5167;52.164;10.530;2022-07-06T04:30:03;18.80;5.00
10245;DHT22;5167;52.164;10.530;2022-07-06T04:32:29;18.80;5.00
10245;DHT22;5167;52.164;10.530;2022-07-06T04:34:54;18.80;5.00
10245;DHT22;5167;52.164;10.530;2022-07-06T04:37:20;18.80;5.00
10245;DHT22;5167;52.164;10.530;2022-07-06T04:39:45;18.80;5.00
10245;DHT22;5167;52.164;10.530;2022-07-06T04:42:10;18.70;5.00
10245;DHT22;5167;52.164;10.530;2022-07-06T04:44:36;18.80;5.00
10245;DHT22;5167;52.164;10.530;2022-07-06T04:47:02;18.80;5.00
10245;DHT22;5167;52.164;10.530;2022-07-06T04:49:27;18.80;5.00
10245;DHT22;5167;52.164;10.530;2022-07-06T04:51:53;18.80;5.00
10245;DHT22;5167;52.164;10.530;2022-07-06T04:54:18;18.80;5.00
10245;DHT22;5167;52.164;10.530;2022-07-06T04:56:43;18.80;5.00
10245;DHT22;5167;52.164;10.530;2022-07-06T04:59:09;18.80;5.00
10245;DHT22;5167;52.164;10.530;2022-07-06T05:01:34;18.80;5.00
10245;DHT22;5167;52.164;10.530;2022-07-06T05:04:00;18.80;5.00
10245;DHT22;5167;52.164;10.530;2022-07-06T05:06:26;18.70;5.00
10245;DHT22;5167;52.164;10.530;2022-07-06T05:08:51;18.80;5.00
10245;DHT22;5167;52.164;10.530;2022-07-06T05:11:17;18.80;5.00
10245;DHT22;5167;52.164;10.530;2022-07-06T05:13:42;18.80;5.00
10245;DHT22;5167;52.164;10.530;2022-07-06T05:16:08;18.80;5.00
10245;DHT22;5167;52.164;10.530;2022-07-06T05:18:34;18.80;5.00
10245;DHT22;5167;52.164;10.530;2022-07-06T05:21:00;18.80;5.00
10245;DHT22;5167;52.164;10.530;2022-07-06T05:23:25;18.80;5.00
10245;DHT22;5167;52.164;10.530;2022-07-06T05:25:52;18.90;5.00
10245;DHT22;5167;52.164;10.530;2022-07-06T05:28:17;18.90;5.00
10245;DHT22;5167;52.164;10.530;2022-07-06T05:30:43;19.00;5.00
10245;DHT22;5167;52.164;10.530;2022-07-06T05:33:08;19.00;5.00
10245;DHT22;5167;52.164;10.530;2022-07-06T05:35:34;19.00;5.00
10245;DHT22;5167;52.164;10.530;2022-07-06T05:37:59;19.00;5.00
10245;DHT22;5167;52.164;10.530;2022-07-06T05:40:25;19.00;5.00
10245;DHT22;5167;52.164;10.530;2022-07-06T05:42:50;19.10;5.00
10245;DHT22;5167;52.164;10.530;2022-07-06T05:45:15;19.00;5.00
10245;DHT22;5167;52.164;10.530;2022-07-06T05:47:41;19.10;5.00
10245;DHT22;5167;52.164;10.530;2022-07-06T05:50:25;19.10;5.00
10245;DHT22;5167;52.164;10.530;2022-07-06T05:52:59;19.10;5.00
10245;DHT22;5167;52.164;10.530;2022-07-06T05:55:26;19.10;5.00
10245;DHT22;5167;52.164;10.530;2022-07-06T05:57:51;19.10;5.00
10245;DHT22;5167;52.164;10.530;2022-07-06T06:00:19;19.20;5.00
10245;DHT22;5167;52.164;10.530;2022-07-06T06:02:45;19.20;5.00
10245;DHT22;5167;52.164;10.530;2022-07-06T06:05:12;19.40;5.00
10245;DHT22;5167;52.164;10.530;2022-07-06T06:07:39;19.20;5.00
10245;DHT22;5167;52.164;10.530;2022-07-06T06:10:07;19.60;5.00
10245;DHT22;5167;52.164;10.530;2022-07-06T06:12:32;19.50;5.00
10245;DHT22;5167;52.164;10.530;2022-07-06T06:14:58;19.60;5.00
10245;DHT22;5167;52.164;10.530;2022-07-06T06:17:24;19.60;5.00
10245;DHT22;5167;52.164;10.530;2022-07-06T06:19:49;19.70;5.00
10245;DHT22;5167;52.164;10.530;2022-07-06T06:22:15;19.70;5.00
10245;DHT22;5167;52.164;10.530;2022-07-06T06:24:40;19.70;5.00
10245;DHT22;5167;52.164;10.530;2022-07-06T06:27:06;19.70;5.00
10245;DHT22;5167;52.164;10.530;2022-07-06T06:29:32;19.70;5.00
10245;DHT22;5167;52.164;10.530;2022-07-06T06:31:57;19.80;5.00
10245;DHT22;5167;52.164;10.530;2022-07-06T06:34:23;19.80;5.00
10245;DHT22;5167;52.164;10.530;2022-07-06T06:36:48;19.90;5.00
10245;DHT22;5167;52.164;10.530;2022-07-06T06:39:14;20.00;5.00
10245;DHT22;5167;52.164;10.530;2022-07-06T06:41:39;20.10;5.00
10245;DHT22;5167;52.164;10.530;2022-07-06T06:44:05;20.20;5.00
10245;DHT22;5167;52.164;10.530;2022-07-06T06:46:30;20.20;5.00
10245;DHT22;5167;52.164;10.530;2022-07-06T06:48:56;20.20;5.00
10245;DHT22;5167;52.164;10.530;2022-07-06T06:51:21;20.20;5.00
10245;DHT22;5167;52.164;10.530;2022-07-06T06:53:47;20.20;5.00
10245;DHT22;5167;52.164;10.530;2022-07-06T06:56:13;20.40;5.00
10245;DHT22;5167;52.164;10.530;2022-07-06T06:58:38;20.50;5.00
10245;DHT22;5167;52.164;10.530;2022-07-06T07:01:04;20.60;5.00
10245;DHT22;5167;52.164;10.530;2022-07-06T07:03:30;20.70;5.00
10245;DHT22;5167;52.164;10.530;2022-07-06T07:05:55;20.70;5.00
10245;DHT22;5167;52.164;10.530;2022-07-06T07:08:21;20.80;5.00
10245;DHT22;5167;52.164;10.530;2022-07-06T07:10:47;20.90;5.00
10245;DHT22;5167;52.164;10.530;2022-07-06T07:13:12;21.00;5.00
10245;DHT22;5167;52.164;10.530;2022-07-06T07:15:38;21.10;5.00
10245;DHT22;5167;52.164;10.530;2022-07-06T07:18:03;21.20;5.00
10245;DHT22;5167;52.164;10.530;2022-07-06T07:20:29;21.20;5.00
10245;DHT22;5167;52.164;10.530;2022-07-06T07:22:56;21.20;5.00
10245;DHT22;5167;52.164;10.530;2022-07-06T07:25:21;21.20;5.00
10245;DHT22;5167;52.164;10.530;2022-07-06T07:27:47;21.30;5.00
10245;DHT22;5167;52.164;10.530;2022-07-06T07:30:13;21.30;5.00
10245;DHT22;5167;52.164;10.530;2022-07-06T07:32:38;21.20;5.00
10245;DHT22;5167;52.164;10.530;2022-07-06T07:35:06;21.20;5.00
10245;DHT22;5167;52.164;10.530;2022-07-06T07:37:31;21.10;5.00
10245;DHT22;5167;52.164;10.530;2022-07-06T07:39:57;21.00;5.00
10245;DHT22;5167;52.164;10.530;2022-07-06T07:42:23;21.00;5.00
10245;DHT22;5167;52.164;10.530;2022-07-06T07:44:48;21.00;5.00
10245;DHT22;5167;52.164;10.530;2022-07-06T07:47:14;21.00;5.00
10245;DHT22;5167;52.164;10.530;2022-07-06T07:49:39;21.00;5.00
10245;DHT22;5167;52.164;10.530;2022-07-06T07:52:05;21.00;5.00
10245;DHT22;5167;52.164;10.530;2022-07-06T07:54:31;21.00;5.00
10245;DHT22;5167;52.164;10.530;2022-07-06T07:56:56;21.00;5.00
10245;DHT22;5167;52.164;10.530;2022-07-06T07:59:22;21.00;5.00
10245;DHT22;5167;52.164;10.530;2022-07-06T08:01:47;21.00;5.00
10245;DHT22;5167;52.164;10.530;2022-07-06T08:04:13;20.90;5.00
10245;DHT22;5167;52.164;10.530;2022-07-06T08:06:38;21.00;5.00
10245;DHT22;5167;52.164;10.530;2022-07-06T08:09:04;20.90;5.00
10245;DHT22;5167;52.164;10.530;2022-07-06T08:11:33;21.00;5.00
10245;DHT22;5167;52.164;10.530;2022-07-06T08:13:58;20.80;5.00
10245;DHT22;5167;52.164;10.530;2022-07-06T08:16:24;20.80;5.00
10245;DHT22;5167;52.164;10.530;2022-07-06T08:18:50;20.80;5.00
10245;DHT22;5167;52.164;10.530;2022-07-06T08:21:16;20.80;5.00
10245;DHT22;5167;52.164;10.530;2022-07-06T08:23:41;20.70;5.00
10245;DHT22;5167;52.164;10.530;2022-07-06T08:26:07;20.60;5.00
10245;DHT22;5167;52.164;10.530;2022-07-06T08:28:32;20.50;5.00
10245;DHT22;5167;52.164;10.530;2022-07-06T08:30:58;20.60;5.00
10245;DHT22;5167;52.164;10.530;2022-07-06T08:33:23;20.60;5.00
10245;DHT22;5167;52.164;10.530;2022-07-06T08:35:49;20.70;5.00
10245;DHT22;5167;52.164;10.530;2022-07-06T08:38:15;20.60;5.00
10245;DHT22;5167;52.164;10.530;2022-07-06T08:40:41;20.60;5.00
10245;DHT22;5167;52.164;10.530;2022-07-06T08:43:08;20.60;5.00
10245;DHT22;5167;52.164;10.530;2022-07-06T08:45:35;20.60;5.00
10245;DHT22;5167;52.164;10.530;2022-07-06T08:48:05;20.60;5.00
10245;DHT22;5167;52.164;10.530;2022-07-06T08:50:31;20.60;5.00
10245;DHT22;5167;52.164;10.530;2022-07-06T08:52:58;20.60;5.00
10245;DHT22;5167;52.164;10.530;2022-07-06T08:55:25;20.60;5.00
10245;DHT22;5167;52.164;10.530;2022-07-06T08:57:51;20.50;5.00
10245;DHT22;5167;52.164;10.530;2022-07-06T09:00:17;20.50;5.00
10245;DHT22;5167;52.164;10.530;2022-07-06T09:02:43;20.50;5.00
10245;DHT22;5167;52.164;10.530;2022-07-06T09:05:09;20.50;5.00
10245;DHT22;5167;52.164;10.530;2022-07-06T09:07:35;20.50;5.00
10245;DHT22;5167;52.164;10.530;2022-07-06T09:10:02;20.50;5.00
10245;DHT22;5167;52.164;10.530;2022-07-06T09:12:29;20.50;5.00
10245;DHT22;5167;52.164;10.530;2022-07-06T09:14:55;20.50;5.00
10245;DHT22;5167;52.164;10.530;2022-07-06T09:17:25;20.60;5.00
10245;DHT22;5167;52.164;10.530;2022-07-06T09:19:51;20.60;5.00
10245;DHT22;5167;52.164;10.530;2022-07-06T09:22:28;20.60;5.00
10245;DHT22;5167;52.164;10.530;2022-07-06T09:25:02;20.70;5.00
10245;DHT22;5167;52.164;10.530;2022-07-06T09:27:28;20.70;5.00
10245;DHT22;5167;52.164;10.530;2022-07-06T09:29:53;20.60;5.00
10245;DHT22;5167;52.164;10.530;2022-07-06T09:32:22;20.70;5.00
10245;DHT22;5167;52.164;10.530;2022-07-06T09:34:47;20.70;5.00
10245;DHT22;5167;52.164;10.530;2022-07-06T09:37:14;20.70;5.00
10245;DHT22;5167;52.164;10.530;2022-07-06T09:39:40;20.60;5.00
10245;DHT22;5167;52.164;10.530;2022-07-06T09:42:06;20.80;5.00
10245;DHT22;5167;52.164;10.530;2022-07-06T09:44:39;20.80;5.00
10245;DHT22;5167;52.164;10.530;2022-07-06T09:47:09;21.00;5.00
10245;DHT22;5167;52.164;10.530;2022-07-06T09:49:36;21.20;5.00
10245;DHT22;5167;52.164;10.530;2022-07-06T09:52:05;21.30;5.00
10245;DHT22;5167;52.164;10.530;2022-07-06T09:54:33;21.40;5.00
10245;DHT22;5167;52.164;10.530;2022-07-06T09:56:59;21.50;5.00
10245;DHT22;5167;52.164;10.530;2022-07-06T09:59:29;21.60;5.00
10245;DHT22;5167;52.164;10.530;2022-07-06T10:02:03;21.70;5.00
10245;DHT22;5167;52.164;10.530;2022-07-06T10:04:29;21.70;5.00
10245;DHT22;5167;52.164;10.530;2022-07-06T10:06:57;21.70;5.00
10245;DHT22;5167;52.164;10.530;2022-07-06T10:09:24;21.70;5.00
10245;DHT22;5167;52.164;10.530;2022-07-06T10:11:52;21.60;5.00
10245;DHT22;5167;52.164;10.530;2022-07-06T10:14:21;21.60;5.00
10245;DHT22;5167;52.164;10.530;2022-07-06T10:16:48;21.60;5.00
10245;DHT22;5167;52.164;10.530;2022-07-06T10:19:15;21.60;5.00
10245;DHT22;5167;52.164;10.530;2022-07-06T10:21:41;21.60;5.00
10245;DHT22;5167;52.164;10.530;2022-07-06T10:24:08;21.60;5.00
10245;DHT22;5167;52.164;10.530;2022-07-06T10:26:35;21.70;5.00
10245;DHT22;5167;52.164;10.530;2022-07-06T10:29:02;21.70;5.00
10245;DHT22;5167;52.164;10.530;2022-07-06T10:31:29;21.80;5.00
10245;DHT22;5167;52.164;10.530;2022-07-06T10:33:57;21.90;5.00
10245;DHT22;5167;52.164;10.530;2022-07-06T10:36:23;21.90;5.00
10245;DHT22;5167;52.164;10.530;2022-07-06T10:38:51;22.00;5.00
10245;DHT22;5167;52.164;10.530;2022-07-06T10:41:16;22.10;5.00
10245;DHT22;5167;52.164;10.530;2022-07-06T10:43:44;22.10;5.00
10245;DHT22;5167;52.164;10.530;2022-07-06T10:46:14;22.10;5.00
10245;DHT22;5167;52.164;10.530;2022-07-06T10:48:41;22.20;5.00
10245;DHT22;5167;52.164;10.530;2022-07-06T10:51:09;22.30;5.00
10245;DHT22;5167;52.164;10.530;2022-07-06T10:53:40;22.40;5.00
10245;DHT22;5167;52.164;10.530;2022-07-06T10:56:08;22.40;5.00
10245;DHT22;5167;52.164;10.530;2022-07-06T10:58:35;22.40;5.00
10245;DHT22;5167;52.164;10.530;2022-07-06T11:01:00;22.40;5.00
10245;DHT22;5167;52.164;10.530;2022-07-06T11:06:17;22.50;5.00
10245;DHT22;5167;52.164;10.530;2022-07-06T11:08:48;22.60;5.00
10245;DHT22;5167;52.164;10.530;2022-07-06T11:13:59;22.50;5.00
10245;DHT22;5167;52.164;10.530;2022-07-06T11:16:28;22.60;5.00
10245;DHT22;5167;52.164;10.530;2022-07-06T11:19:01;22.70;5.00
10245;DHT22;5167;52.164;10.530;2022-07-06T11:21:36;22.70;5.00
10245;DHT22;5167;52.164;10.530;2022-07-06T11:24:02;22.70;5.00
10245;DHT22;5167;52.164;10.530;2022-07-06T11:26:30;22.70;5.00
10245;DHT22;5167;52.164;10.530;2022-07-06T11:28:56;23.00;5.00
10245;DHT22;5167;52.164;10.530;2022-07-06T11:31:23;22.90;5.00
10245;DHT22;5167;52.164;10.530;2022-07-06T11:33:49;22.90;5.00
10245;DHT22;5167;52.164;10.530;2022-07-06T11:36:19;23.00;5.00
10245;DHT22;5167;52.164;10.530;2022-07-06T11:38:46;23.10;5.00
10245;DHT22;5167;52.164;10.530;2022-07-06T11:41:12;23.10;5.00
10245;DHT22;5167;52.164;10.530;2022-07-06T11:43:43;23.00;5.00
10245;DHT22;5167;52.164;10.530;2022-07-06T11:46:30;22.90;5.00
10245;DHT22;5167;52.164;10.530;2022-07-06T11:49:03;22.90;5.00
10245;DHT22;5167;52.164;10.530;2022-07-06T11:51:30;22.80;5.00
10245;DHT22;5167;52.164;10.530;2022-07-06T11:53:58;22.70;5.00
10245;DHT22;5167;52.164;10.530;2022-07-06T11:56:26;22.60;5.00
10245;DHT22;5167;52.164;10.530;2022-07-06T11:58:56;22.60;5.00
10245;DHT22;5167;52.164;10.530;2022-07-06T12:01:24;22.60;5.00
10245;DHT22;5167;52.164;10.530;2022-07-06T12:03:50;22.60;5.00
10245;DHT22;5167;52.164;10.530;2022-07-06T12:06:21;22.60;5.00
10245;DHT22;5167;52.164;10.530;2022-07-06T12:08:52;22.60;5.00
10245;DHT22;5167;52.164;10.530;2022-07-06T12:11:26;22.60;5.00
10245;DHT22;5167;52.164;10.530;2022-07-06T12:13:57;22.60;5.00
10245;DHT22;5167;52.164;10.530;2022-07-06T12:16:38;22.60;5.00
10245;DHT22;5167;52.164;10.530;2022-07-06T12:19:04;22.60;5.00
10245;DHT22;5167;52.164;10.530;2022-07-06T12:21:31;22.70;5.00
10245;DHT22;5167;52.164;10.530;2022-07-06T12:23:57;22.70;5.00
10245;DHT22;5167;52.164;10.530;2022-07-06T12:26:25;22.70;5.00
10245;DHT22;5167;52.164;10.530;2022-07-06T12:29:04;22.70;5.00
10245;DHT22;5167;52.164;10.530;2022-07-06T12:31:48;22.80;5.00
10245;DHT22;5167;52.164;10.530;2022-07-06T12:34:21;22.80;5.00
10245;DHT22;5167;52.164;10.530;2022-07-06T12:36:48;22.90;5.00
10245;DHT22;5167;52.164;10.530;2022-07-06T12:39:16;23.00;5.00
10245;DHT22;5167;52.164;10.530;2022-07-06T12:41:51;23.00;5.00
10245;DHT22;5167;52.164;10.530;2022-07-06T12:44:19;23.00;5.00
10245;DHT22;5167;52.164;10.530;2022-07-06T12:46:45;22.90;5.00
10245;DHT22;5167;52.164;10.530;2022-07-06T12:49:16;22.90;5.00
10245;DHT22;5167;52.164;10.530;2022-07-06T12:52:12;22.90;5.00
10245;DHT22;5167;52.164;10.530;2022-07-06T12:54:48;22.80;5.00
10245;DHT22;5167;52.164;10.530;2022-07-06T12:57:23;22.80;5.00
10245;DHT22;5167;52.164;10.530;2022-07-06T13:02:32;22.60;5.00
10245;DHT22;5167;52.164;10.530;2022-07-06T13:05:00;22.60;5.00
10245;DHT22;5167;52.164;10.530;2022-07-06T13:07:28;22.50;5.00
10245;DHT22;5167;52.164;10.530;2022-07-06T13:09:54;22.50;5.00
10245;DHT22;5167;52.164;10.530;2022-07-06T13:12:21;22.40;5.00
10245;DHT22;5167;52.164;10.530;2022-07-06T13:14:47;22.30;5.00
10245;DHT22;5167;52.164;10.530;2022-07-06T13:17:13;22.40;5.00
10245;DHT22;5167;52.164;10.530;2022-07-06T13:19:38;22.30;5.00
10245;DHT22;5167;52.164;10.530;2022-07-06T13:22:04;22.30;5.00
10245;DHT22;5167;52.164;10.530;2022-07-06T13:24:29;22.40;5.00
10245;DHT22;5167;52.164;10.530;2022-07-06T13:26:56;22.40;5.00
10245;DHT22;5167;52.164;10.530;2022-07-06T13:29:22;22.50;5.00
10245;DHT22;5167;52.164;10.530;2022-07-06T13:31:48;22.50;5.00
10245;DHT22;5167;52.164;10.530;2022-07-06T13:34:13;22.60;5.00
10245;DHT22;5167;52.164;10.530;2022-07-06T13:36:39;22.70;5.00
10245;DHT22;5167;52.164;10.530;2022-07-06T13:39:05;22.70;5.00
10245;DHT22;5167;52.164;10.530;2022-07-06T13:41:31;22.60;5.00
10245;DHT22;5167;52.164;10.530;2022-07-06T13:43:57;22.70;5.00
10245;DHT22;5167;52.164;10.530;2022-07-06T13:46:22;22.60;5.00
10245;DHT22;5167;52.164;10.530;2022-07-06T13:48:48;22.60;5.00
10245;DHT22;5167;52.164;10.530;2022-07-06T13:51:14;22.50;5.00
10245;DHT22;5167;52.164;10.530;2022-07-06T13:53:39;22.50;5.00
10245;DHT22;5167;52.164;10.530;2022-07-06T13:56:05;22.40;5.00
10245;DHT22;5167;52.164;10.530;2022-07-06T13:58:30;22.40;5.00
10245;DHT22;5167;52.164;10.530;2022-07-06T14:00:56;22.40;5.00
10245;DHT22;5167;52.164;10.530;2022-07-06T14:03:21;22.40;5.00
10245;DHT22;5167;52.164;10.530;2022-07-06T14:05:53;22.40;5.00
10245;DHT22;5167;52.164;10.530;2022-07-06T14:08:18;22.50;5.00
10245;DHT22;5167;52.164;10.530;2022-07-06T14:10:44;22.50;5.00
10245;DHT22;5167;52.164;10.530;2022-07-06T14:13:09;22.60;5.00
10245;DHT22;5167;52.164;10.530;2022-07-06T14:15:35;22.70;5.00
10245;DHT22;5167;52.164;10.530;2022-07-06T14:18:00;22.80;5.00
10245;DHT22;5167;52.164;10.530;2022-07-06T14:20:26;22.90;5.00
10245;DHT22;5167;52.164;10.530;2022-07-06T14:22:51;22.90;5.00
10245;DHT22;5167;52.164;10.530;2022-07-06T14:25:17;22.90;5.00
10245;DHT22;5167;52.164;10.530;2022-07-06T14:27:42;23.00;5.00
10245;DHT22;5167;52.164;10.530;2022-07-06T14:30:09;23.00;5.00
10245;DHT22;5167;52.164;10.530;2022-07-06T14:32:35;23.00;5.00
10245;DHT22;5167;52.164;10.530;2022-07-06T14:35:00;23.00;5.00
10245;DHT22;5167;52.164;10.530;2022-07-06T14:37:26;23.00;5.00
10245;DHT22;5167;52.164;10.530;2022-07-06T14:39:51;23.10;5.00
10245;DHT22;5167;52.164;10.530;2022-07-06T14:42:17;23.10;5.00
10245;DHT22;5167;52.164;10.530;2022-07-06T14:44:42;23.10;5.00
10245;DHT22;5167;52.164;10.530;2022-07-06T14:47:07;23.20;5.00
10245;DHT22;5167;52.164;10.530;2022-07-06T14:49:33;23.10;5.00
10245;DHT22;5167;52.164;10.530;2022-07-06T14:51:58;23.20;5.00
10245;DHT22;5167;52.164;10.530;2022-07-06T14:54:25;23.20;5.00
10245;DHT22;5167;52.164;10.530;2022-07-06T14:56:50;23.20;5.00
10245;DHT22;5167;52.164;10.530;2022-07-06T14:59:16;23.20;5.00
10245;DHT22;5167;52.164;10.530;2022-07-06T15:01:41;23.10;5.00
10245;DHT22;5167;52.164;10.530;2022-07-06T15:04:08;23.00;5.00
10245;DHT22;5167;52.164;10.530;2022-07-06T15:06:33;23.00;5.00
10245;DHT22;5167;52.164;10.530;2022-07-06T15:08:59;23.00;5.00
10245;DHT22;5167;52.164;10.530;2022-07-06T15:11:26;23.10;5.00
10245;DHT22;5167;52.164;10.530;2022-07-06T15:13:51;23.10;5.00
10245;DHT22;5167;52.164;10.530;2022-07-06T15:16:17;23.10;5.00
10245;DHT22;5167;52.164;10.530;2022-07-06T15:18:42;23.00;5.00
10245;DHT22;5167;52.164;10.530;2022-07-06T15:21:08;23.00;5.00
10245;DHT22;5167;52.164;10.530;2022-07-06T15:23:35;23.10;5.00
10245;DHT22;5167;52.164;10.530;2022-07-06T15:26:02;23.00;5.00
10245;DHT22;5167;52.164;10.530;2022-07-06T15:28:28;23.00;5.00
10245;DHT22;5167;52.164;10.530;2022-07-06T15:30:55;23.00;5.00
10245;DHT22;5167;52.164;10.530;2022-07-06T15:33:20;23.10;5.00
10245;DHT22;5167;52.164;10.530;2022-07-06T15:35:46;23.20;5.00
10245;DHT22;5167;52.164;10.530;2022-07-06T15:38:13;23.20;5.00
10245;DHT22;5167;52.164;10.530;2022-07-06T15:40:38;23.20;5.00
10245;DHT22;5167;52.164;10.530;2022-07-06T15:43:06;23.20;5.00
10245;DHT22;5167;52.164;10.530;2022-07-06T15:45:32;23.20;5.00
10245;DHT22;5167;52.164;10.530;2022-07-06T15:47:57;23.20;5.00
10245;DHT22;5167;52.164;10.530;2022-07-06T15:50:23;23.20;5.00
10245;DHT22;5167;52.164;10.530;2022-07-06T15:52:48;23.30;5.00